Time;durP1;ratioP1;P1;durP2;ratioP2;P2;SDS_P1;SDS_P2;PMS_P1;PMS_P2;Temp;Humidity;BMP_temperature;BMP_pressure;BME280_temperature;BME280_humidity;BME280_pressure;Samples;Min_cycle;Max_cycle;Signal;HPM_P1;HPM_P2
2023/11/25 00:05:05;;;;;;;0.77;0.00;;;0.30;91.40;;;;;;25471108;23;20017;-59
2023/11/25 00:15:08;;;;;;;0.17;0.00;;;0.10;91.90;;;;;;25512427;23;20376;-59
2023/11/25 00:25:13;;;;;;;0.00;0.00;;;0.10;91.80;;;;;;25471237;23;20060;-49
2023/11/25 00:35:15;;;;;;;0.22;0.00;;;0.60;75.30;;;;;;25470149;23;20549;-59
2023/11/25 00:45:17;;;;;;;0.05;0.00;;;0.20;91.20;;;;;;25468357;23;20017;-59
2023/11/25 00:55:20;;;;;;;0.00;0.00;;;-0.30;92.60;;;;;;25469686;23;20010;-59
2023/11/25 01:05:23;;;;;;;0.00;0.00;;;-0.70;88.00;;;;;;25470545;23;20005;-59
2023/11/25 01:15:27;;;;;;;0.10;0.00;;;-0.30;77.00;;;;;;25476595;23;20012;-59
2023/11/25 01:25:29;;;;;;;0.00;0.00;;;-0.60;84.30;;;;;;25476497;23;20005;-59
2023/11/25 01:35:31;;;;;;;0.00;0.00;;;-1.20;79.20;;;;;;25474554;23;20006;-59
2023/11/25 01:45:33;;;;;;;0.00;0.00;;;-1.60;77.70;;;;;;25475478;23;20013;-59
2023/11/25 01:55:35;;;;;;;0.00;0.00;;;-1.40;78.20;;;;;;25475123;23;20008;-59
2023/11/25 02:05:38;;;;;;;0.00;0.00;;;-1.60;84.30;;;;;;25473890;23;20010;-46
2023/11/25 02:15:40;;;;;;;0.00;0.00;;;-1.90;87.00;;;;;;25473867;23;20009;-58
2023/11/25 02:25:49;;;;;;;0.43;0.00;;;-1.50;68.00;;;;;;25474321;23;20013;-59
2023/11/25 02:35:52;;;;;;;0.00;0.00;;;-0.10;60.00;;;;;;25514390;23;20060;-54
2023/11/25 02:45:54;;;;;;;0.00;0.00;;;0.50;61.20;;;;;;25471770;23;20069;-59
2023/11/25 02:55:55;;;;;;;0.00;0.00;;;0.10;62.80;;;;;;25472505;23;20315;-50
2023/11/25 03:05:59;;;;;;;0.00;0.00;;;-1.10;70.10;;;;;;25471058;23;20089;-54
2023/11/25 03:16:01;;;;;;;0.43;0.00;;;-1.80;70.10;;;;;;25471975;23;20008;-59
2023/11/25 03:26:11;;;;;;;0.00;0.00;;;-2.40;75.00;;;;;;25472108;23;20006;-59
2023/11/25 03:36:13;;;;;;;0.22;0.00;;;-2.90;75.70;;;;;;25511590;23;20005;-58
2023/11/25 03:46:15;;;;;;;0.00;0.00;;;-3.20;78.20;;;;;;25469508;23;20024;-53
2023/11/25 03:56:17;;;;;;;0.15;0.00;;;-2.90;75.60;;;;;;25472727;23;20016;-59
2023/11/25 04:06:19;;;;;;;0.00;0.00;;;-2.90;81.70;;;;;;25470655;23;20060;-49
2023/11/25 04:16:21;;;;;;;0.00;0.00;;;-3.10;85.10;;;;;;25470232;23;20006;-57
2023/11/25 04:26:24;;;;;;;0.00;0.00;;;-3.10;84.20;;;;;;25470633;23;20508;-48
2023/11/25 04:36:26;;;;;;;0.00;0.00;;;-3.10;82.00;;;;;;25469894;23;20012;-53
2023/11/25 04:46:30;;;;;;;0.00;0.00;;;-2.70;78.60;;;;;;25478378;23;20072;-52
2023/11/25 04:56:32;;;;;;;0.03;0.00;;;-2.30;75.70;;;;;;25451316;23;20068;-48
2023/11/25 05:06:34;;;;;;;0.93;0.00;;;-2.50;80.00;;;;;;25477129;23;20006;-58
2023/11/25 05:16:36;;;;;;;0.43;0.00;;;-2.80;81.60;;;;;;25476718;23;20005;-59
2023/11/25 05:26:38;;;;;;;6.13;0.10;;;-2.80;81.70;;;;;;25476635;23;20037;-58
2023/11/25 05:36:40;;;;;;;0.00;0.00;;;-2.50;82.70;;;;;;25425089;23;20093;-46
2023/11/25 05:46:42;;;;;;;2.03;0.00;;;-1.80;88.00;;;;;;25475218;23;20041;-59
2023/11/25 05:56:50;;;;;;;0.22;0.00;;;-1.50;90.20;;;;;;25475194;23;20008;-59
2023/11/25 06:06:52;;;;;;;0.00;0.00;;;-1.60;91.30;;;;;;25514758;23;20396;-59
2023/11/25 06:16:56;;;;;;;0.03;0.00;;;-1.90;92.70;;;;;;25474315;23;20002;-56
2023/11/25 06:26:58;;;;;;;0.00;0.00;;;-2.30;94.00;;;;;;25448176;23;20005;-59
2023/11/25 06:37:05;;;;;;;0.00;0.00;;;-2.60;94.80;;;;;;25473442;23;20040;-49
2023/11/25 06:47:07;;;;;;;0.00;0.00;;;-3.00;95.10;;;;;;25473820;23;20076;-49
2023/11/25 06:57:09;;;;;;;0.00;0.00;;;-2.60;94.00;;;;;;25471169;23;20015;-58
2023/11/25 07:07:11;;;;;;;0.05;0.00;;;-2.40;94.80;;;;;;25445843;23;20017;-58
2023/11/25 07:17:13;;;;;;;0.30;0.00;;;-2.10;94.60;;;;;;25472302;23;20068;-58
2023/11/25 07:27:18;;;;;;;0.20;0.00;;;-2.10;96.00;;;;;;25471609;23;20005;-55
2023/11/25 07:37:20;;;;;;;0.80;0.00;;;-2.00;96.50;;;;;;25470758;23;20001;-47
2023/11/25 07:47:22;;;;;;;0.00;0.00;;;-1.60;96.40;;;;;;25471134;23;20013;-56
2023/11/25 07:57:24;;;;;;;0.30;0.10;;;-1.40;96.20;;;;;;25471023;23;20029;-56
2023/11/25 08:07:27;;;;;;;0.50;0.00;;;-1.10;95.00;;;;;;25470856;23;20005;-50
2023/11/25 08:17:29;;;;;;;0.00;0.00;;;-0.70;93.80;;;;;;25473973;23;20068;-55
2023/11/25 08:27:31;;;;;;;0.32;0.00;;;-0.40;90.10;;;;;;25478676;23;20005;-56
2023/11/25 08:37:33;;;;;;;0.00;0.00;;;0.10;82.10;;;;;;25478212;23;20010;-48
2023/11/25 08:47:38;;;;;;;0.00;0.00;;;0.30;79.60;;;;;;25518301;23;20013;-56
2023/11/25 08:57:40;;;;;;;0.90;0.00;;;0.50;65.60;;;;;;25477379;23;20385;-56
2023/11/25 09:07:43;;;;;;;0.20;0.00;;;0.80;64.80;;;;;;25476604;23;20002;-55
2023/11/25 09:17:45;;;;;;;0.70;0.00;;;1.20;58.90;;;;;;25475498;23;20009;-57
2023/11/25 09:27:50;;;;;;;1.42;0.00;;;1.20;58.30;;;;;;25476396;23;20032;-58
2023/11/25 09:37:52;;;;;;;0.08;0.00;;;1.40;61.60;;;;;;25475190;23;20014;-55
2023/11/25 09:47:54;;;;;;;0.00;0.00;;;1.30;60.70;;;;;;25516616;23;20006;-57
2023/11/25 09:58:08;;;;;;;0.45;0.00;;;1.40;54.20;;;;;;25475196;23;20005;-57
2023/11/25 10:08:10;;;;;;;0.22;0.03;;;1.50;67.00;;;;;;25515438;23;20006;-57
2023/11/25 10:18:12;;;;;;;0.28;0.00;;;1.90;63.70;;;;;;25474351;23;20001;-47
2023/11/25 10:28:17;;;;;;;1.05;0.08;;;2.20;60.00;;;;;;25474288;23;20016;-49
2023/11/25 10:38:22;;;;;;;0.20;0.05;;;2.20;66.30;;;;;;25471888;23;20076;-57
2023/11/25 10:48:24;;;;;;;3.78;0.10;;;1.90;60.30;;;;;;25474384;23;20010;-49
2023/11/25 10:58:27;;;;;;;0.30;0.00;;;2.10;66.90;;;;;;25473138;23;20429;-57
2023/11/25 11:08:32;;;;;;;0.00;0.00;;;2.20;65.90;;;;;;25472090;23;20355;-57
2023/11/25 11:18:36;;;;;;;0.03;0.00;;;3.30;65.40;;;;;;25471868;23;20013;-56
2023/11/25 11:29:17;;;;;;;0.95;0.00;;;3.20;61.60;;;;;;25471504;23;20010;-57
2023/11/25 11:39:38;;;;;;;0.20;0.08;;;3.20;64.20;;;;;;25217433;23;20014;-58
2023/11/25 11:49:40;;;;;;;0.00;0.00;;;3.70;65.00;;;;;;25217266;23;20041;-58
2023/11/25 12:00:12;;;;;;;0.10;0.00;;;3.70;65.30;;;;;;25217238;23;20010;-59
2023/11/25 12:10:14;;;;;;;0.82;0.00;;;3.50;60.70;;;;;;25263267;23;20018;-54
2023/11/25 12:20:16;;;;;;;0.15;0.00;;;3.90;62.40;;;;;;25348442;23;20010;-46
2023/11/25 12:30:18;;;;;;;1.10;0.00;;;3.00;63.10;;;;;;25348510;23;20335;-59
2023/11/25 12:40:23;;;;;;;0.03;0.00;;;2.80;61.10;;;;;;25383569;23;20087;-51
2023/11/25 12:50:26;;;;;;;0.43;0.10;;;2.20;60.40;;;;;;25469949;23;20009;-46
2023/11/25 13:00:28;;;;;;;0.50;0.10;;;2.00;61.10;;;;;;25470693;23;20058;-48
2023/11/25 13:10:29;;;;;;;0.50;0.00;;;1.50;60.80;;;;;;25476713;23;20001;-58
2023/11/25 13:20:31;;;;;;;0.00;0.00;;;1.80;56.30;;;;;;25476435;23;20010;-57
2023/11/25 13:30:33;;;;;;;0.32;0.00;;;1.90;52.60;;;;;;25476472;23;20005;-51
2023/11/25 13:40:37;;;;;;;0.52;0.00;;;1.70;54.80;;;;;;25474335;23;20390;-59
2023/11/25 13:50:40;;;;;;;4.10;0.03;;;1.60;53.80;;;;;;25474989;23;20009;-51
2023/11/25 14:00:42;;;;;;;0.10;0.00;;;1.50;51.20;;;;;;25473483;23;20006;-53
2023/11/25 14:10:44;;;;;;;0.57;0.00;;;1.40;49.40;;;;;;25473815;23;20033;-58
2023/11/25 14:20:46;;;;;;;0.00;0.00;;;1.30;51.90;;;;;;25473691;23;20005;-58
2023/11/25 14:30:51;;;;;;;0.45;0.10;;;1.10;53.50;;;;;;25474634;23;20009;-48
2023/11/25 14:40:53;;;;;;;0.10;0.00;;;0.60;58.10;;;;;;25473248;23;20013;-55
2023/11/25 14:50:54;;;;;;;0.00;0.00;;;0.50;54.90;;;;;;25473193;23;20341;-50
2023/11/25 15:00:56;;;;;;;0.15;0.00;;;0.50;53.30;;;;;;25472884;23;20013;-58
2023/11/25 15:10:58;;;;;;;1.17;0.10;;;0.30;51.70;;;;;;25471624;23;20013;-59
2023/11/25 15:21:04;;;;;;;2.17;0.08;;;0.20;51.30;;;;;;25471711;23;20010;-49
2023/11/25 15:31:13;;;;;;;0.20;0.00;;;0.30;50.70;;;;;;25510776;23;20002;-59
2023/11/25 15:41:14;;;;;;;0.30;0.00;;;0.10;50.20;;;;;;25496139;23;20013;-59
2023/11/25 15:51:16;;;;;;;0.63;0.00;;;0.00;53.00;;;;;;25471347;23;20060;-59
2023/11/25 16:01:18;;;;;;;0.40;0.10;;;0.20;49.90;;;;;;25470915;23;20006;-58
2023/11/25 16:11:21;;;;;;;0.22;0.00;;;0.30;49.80;;;;;;25470557;23;20056;-49
2023/11/25 16:21:24;;;;;;;0.00;0.00;;;0.30;49.70;;;;;;25468836;23;20006;-59
2023/11/25 16:31:27;;;;;;;0.00;0.00;;;0.40;49.40;;;;;;25470134;23;20005;-47
2023/11/25 16:41:29;;;;;;;0.17;0.00;;;0.40;49.20;;;;;;25475747;23;20076;-58
2023/11/25 16:51:31;;;;;;;0.00;0.00;;;0.40;51.10;;;;;;25477996;23;20338;-58
2023/11/25 17:01:33;;;;;;;0.65;0.03;;;-0.20;51.70;;;;;;25477416;23;20012;-48
2023/11/25 17:11:35;;;;;;;0.00;0.00;;;-0.50;52.70;;;;;;25477183;23;20013;-53
2023/11/25 17:21:36;;;;;;;0.10;0.00;;;-1.10;56.10;;;;;;25477073;23;20437;-59
2023/11/25 17:31:39;;;;;;;0.00;0.00;;;-1.70;57.80;;;;;;25476174;23;20006;-59
2023/11/25 17:41:41;;;;;;;0.00;0.00;;;-2.10;58.60;;;;;;25474927;23;20013;-59
2023/11/25 17:51:43;;;;;;;0.32;0.05;;;-2.30;57.50;;;;;;25473698;23;20001;-48
2023/11/25 18:01:49;;;;;;;0.00;0.00;;;-0.80;55.50;;;;;;25474132;23;20006;-59
2023/11/25 18:11:50;;;;;;;0.00;0.00;;;-0.20;54.40;;;;;;25472653;23;20009;-56
2023/11/25 18:21:52;;;;;;;0.00;0.00;;;0.00;55.00;;;;;;25472477;23;20002;-46
2023/11/25 18:31:54;;;;;;;0.10;0.00;;;-0.10;54.50;;;;;;25473490;23;20056;-60
2023/11/25 18:41:59;;;;;;;0.13;0.00;;;-0.40;56.60;;;;;;25471476;23;20085;-59
2023/11/25 18:52:01;;;;;;;0.00;0.00;;;-1.50;58.40;;;;;;25472243;23;20001;-59
2023/11/25 19:02:05;;;;;;;0.10;0.00;;;-2.60;66.30;;;;;;25471949;23;20052;-59
2023/11/25 19:12:08;;;;;;;0.08;0.00;;;-3.40;68.90;;;;;;25460325;23;20013;-49
2023/11/25 19:22:10;;;;;;;0.00;0.00;;;-3.90;68.90;;;;;;25435529;23;20430;-48
2023/11/25 19:32:14;;;;;;;0.00;0.00;;;-3.90;68.80;;;;;;25434672;23;20079;-57
2023/11/25 19:42:17;;;;;;;0.10;0.00;;;-4.10;70.80;;;;;;25467093;23;20442;-50
2023/11/25 19:52:19;;;;;;;0.00;0.00;;;-4.30;70.50;;;;;;25469348;23;20005;-50
2023/11/25 20:02:21;;;;;;;0.20;0.00;;;-4.50;73.40;;;;;;25469382;23;20005;-53
2023/11/25 20:12:23;;;;;;;0.35;0.00;;;-4.50;71.80;;;;;;25473035;23;20001;-51
2023/11/25 20:22:25;;;;;;;0.03;0.00;;;-4.60;74.40;;;;;;25477179;23;20010;-54
2023/11/25 20:32:27;;;;;;;0.38;0.00;;;-4.50;75.20;;;;;;25477229;23;20080;-58
2023/11/25 20:42:29;;;;;;;0.10;0.00;;;-4.60;73.60;;;;;;25476539;23;20009;-50
2023/11/25 20:52:32;;;;;;;0.00;0.00;;;-4.50;72.20;;;;;;25475739;23;20334;-58
2023/11/25 21:02:33;;;;;;;0.03;0.00;;;-3.80;68.70;;;;;;25475324;23;20147;-49
2023/11/25 21:12:35;;;;;;;0.15;0.00;;;-3.60;72.10;;;;;;25477182;23;20037;-47
2023/11/25 21:22:40;;;;;;;0.20;0.10;;;-3.90;70.20;;;;;;25476677;23;20446;-51
2023/11/25 21:32:42;;;;;;;0.43;0.10;;;-3.90;72.20;;;;;;25476460;23;20005;-47
2023/11/25 21:42:44;;;;;;;0.47;0.00;;;-3.70;65.90;;;;;;25475309;23;20010;-57
2023/11/25 21:52:47;;;;;;;0.03;0.00;;;-3.60;71.30;;;;;;25475543;23;20032;-45
2023/11/25 22:02:49;;;;;;;0.08;0.00;;;-3.40;72.90;;;;;;25474976;23;20009;-56
2023/11/25 22:12:51;;;;;;;0.10;0.00;;;-2.90;72.90;;;;;;25476783;23;20056;-46
2023/11/25 22:22:54;;;;;;;0.20;0.00;;;-3.10;72.40;;;;;;25472944;23;20010;-47
2023/11/25 22:32:56;;;;;;;0.00;0.00;;;-2.60;71.60;;;;;;25473252;23;20010;-47
2023/11/25 22:42:58;;;;;;;0.00;0.00;;;-1.60;69.20;;;;;;25473582;23;20318;-49
2023/11/25 22:53:00;;;;;;;0.10;0.00;;;-0.90;67.80;;;;;;25473448;23;20005;-55
2023/11/25 23:03:02;;;;;;;0.22;0.00;;;-0.80;67.20;;;;;;25472724;23;20009;-44
2023/11/25 23:13:07;;;;;;;0.52;0.05;;;-0.70;67.00;;;;;;25472608;23;20438;-47
2023/11/25 23:23:10;;;;;;;0.08;0.00;;;-0.70;66.90;;;;;;25471794;23;20001;-44
2023/11/25 23:33:12;;;;;;;0.00;0.00;;;-0.60;66.20;;;;;;25471730;23;20005;-44
2023/11/25 23:43:18;;;;;;;0.00;0.00;;;-0.30;65.50;;;;;;25471306;23;20036;-49
2023/11/25 23:53:20;;;;;;;0.40;0.00;;;-0.30;65.50;;;;;;25512182;23;20499;-57
